Buoy 32622

sailwx.info

Track history (hours):
 
Tides and Currents Weather Stations Pressure Air Temp Water Temp Dewpoint Dewpoint Depression Visibility Wind Speed Wind Dir Waves Ship Positions

Aadnyj

Last reported at 2017-Jan-16 23:00 UTC. Time now 2017-Jan-17 00:57 UTC.
Position S 09°57' W 126°19'.

Length 56 m.

Type: Towing. MMSI: 413600286.

Water temperature 28.3 ° C

Date/timePositionNaut miles runAvg speedWind from/ knotsBaromVisibWave heightAir tempDewpointWater temp
2017-Jan-16 23:00S 09°57' W 126°19'2 1.7 28.3
2017-Jan-16 22:00S 09°56' W 126°17'0 0.0 28.2
2017-Jan-16 18:00S 09°56' W 126°17'1 0.8 27.9
2017-Jan-16 17:00S 09°55' W 126°17'0 0.0 27.9
2017-Jan-16 15:00S 09°55' W 126°17'6 5.9 27.9
2017-Jan-16 14:00S 09°55' W 126°11'0 0.0 27.9
2017-Jan-16 13:00S 09°55' W 126°11'0 0.0 27.9
2017-Jan-16 12:00S 09°55' W 126°11'0 0.0 27.9
2017-Jan-16 10:00S 09°55' W 126°11'0 0.0 27.9
2017-Jan-16 07:00S 09°55' W 126°11'0 0.0 27.9
2017-Jan-16 06:00S 09°55' W 126°11'1 0.6 27.9
2017-Jan-16 05:00S 09°55' W 126°10'3 1.0 27.9
2017-Jan-16 02:00S 09°55' W 126°07'0 0.0 28.1
2017-Jan-16 01:00S 09°55' W 126°07'0 0.0 28.2
2017-Jan-16 00:00S 09°55' W 126°07'1 0.6 28.2
2017-Jan-15 23:00S 09°55' W 126°07'1 0.6 28.2
2017-Jan-15 22:00S 09°55' W 126°07'0 0.0 28.1
2017-Jan-15 21:00S 09°55' W 126°07'2 0.8 28.2
2017-Jan-15 18:00S 09°55' W 126°05'1 0.2 27.9
2017-Jan-15 15:00S 09°55' W 126°04'0 0.0 27.8
2017-Jan-15 14:00S 09°55' W 126°04'1 0.6 27.8
2017-Jan-15 13:00S 09°55' W 126°04'0 0.0 27.8
2017-Jan-15 12:00S 09°55' W 126°04'1 0.6 27.8
2017-Jan-15 11:00S 09°55' W 126°03'1 0.3 27.8
2017-Jan-15 09:00S 09°55' W 126°02'0 0.0 27.8
2017-Jan-15 06:00S 09°55' W 126°02'0 0.0 27.9
2017-Jan-15 05:00S 09°55' W 126°02'1 1.3 27.9
2017-Jan-15 04:00S 09°54' W 126°01'1 0.2 28.0
2017-Jan-15 01:00S 09°55' W 126°01'1 1.3 28.3
2017-Jan-15 00:00S 09°54' W 126°00'1 0.6 28.2
2017-Jan-14 23:00S 09°54' W 126°01'0 0.0 28.3
2017-Jan-14 22:00S 09°54' W 126°01'1 0.4 28.3
2017-Jan-14 19:00S 09°53' W 125°59'0 0.0 27.9
2017-Jan-14 18:00S 09°53' W 125°59'0 0.0 27.8
2017-Jan-14 17:00S 09°53' W 125°59'1 1.3 27.7
2017-Jan-14 16:00S 09°53' W 125°58'0 0.0 27.7
2017-Jan-14 15:00S 09°53' W 125°58'0 0.0 27.7
2017-Jan-14 14:00S 09°53' W 125°58'1 1.3 27.7
2017-Jan-14 13:00S 09°53' W 125°57'0 0.0 27.7
2017-Jan-14 11:00S 09°53' W 125°57'1 0.3 27.7
2017-Jan-14 09:00S 09°53' W 125°58'2 0.9 27.8
2017-Jan-14 07:00S 09°53' W 125°56'1 0.3 27.8
2017-Jan-14 04:00S 09°52' W 125°55'1 0.4 27.9
2017-Jan-14 01:00S 09°52' W 125°54'0 0.0 28.1
2017-Jan-14 00:00S 09°52' W 125°54'0 0.0 28.2
2017-Jan-13 23:00S 09°52' W 125°54'0 0.0 28.1
2017-Jan-13 22:00S 09°52' W 125°54'1 0.2 28.1
2017-Jan-13 18:00S 09°52' W 125°53'0 0.0 27.7
2017-Jan-13 17:00S 09°52' W 125°53'1 0.6 27.7
2017-Jan-13 15:00S 09°52' W 125°52'1 0.6 27.6
2017-Jan-13 14:00S 09°52' W 125°53'1 1.3 27.6
2017-Jan-13 13:00S 09°53' W 125°52'0 0.0 27.6
2017-Jan-13 11:00S 09°53' W 125°52'1 0.8 27.7
2017-Jan-13 10:00S 09°52' W 125°51'0 0.0 27.7
2017-Jan-13 09:00S 09°52' W 125°51'3 0.9 27.7
2017-Jan-13 06:00S 09°53' W 125°49'0 0.0 27.7
2017-Jan-13 05:00S 09°53' W 125°49'1 0.1 27.8
2017-Jan-13 00:00S 09°53' W 125°49'1 0.8 28.1
2017-Jan-12 23:00S 09°52' W 125°49'2 0.3 28.1
2017-Jan-12 17:00S 09°51' W 125°48'2 0.9 27.6
2017-Jan-12 15:00S 09°50' W 125°46'0 0.0 27.6
2017-Jan-12 14:00S 09°50' W 125°46'0 0.0 27.6
2017-Jan-12 13:00S 09°50' W 125°46'0 0.0 27.6
2017-Jan-12 12:00S 09°50' W 125°46'1 0.8 27.6
2017-Jan-12 11:00S 09°50' W 125°47'0 0.0 27.6
2017-Jan-12 10:00S 09°50' W 125°47'2 0.8 27.7
2017-Jan-12 07:00S 09°49' W 125°44'0 0.0 27.7
2017-Jan-12 06:00S 09°49' W 125°44'1 0.6 27.7
2017-Jan-12 05:00S 09°49' W 125°44'2 0.5 27.7
2017-Jan-12 01:00S 09°49' W 125°42'1 0.6 28.0
2017-Jan-12 00:00S 09°49' W 125°43'2 1.8 28.0
2017-Jan-11 23:00S 09°49' W 125°41'0 0.0 28.0
2017-Jan-11 22:00S 09°49' W 125°41'1 0.3 27.9
2017-Jan-11 18:00S 09°48' W 125°42'3 3.0 27.6
2017-Jan-11 17:00S 09°48' W 125°39'0 0.0 27.6
2017-Jan-11 16:00S 09°48' W 125°39'0 0.0 27.6
2017-Jan-11 15:00S 09°48' W 125°39'1 1.3 27.6
2017-Jan-11 14:00S 09°49' W 125°38'0 0.0 27.6
2017-Jan-11 13:00S 09°49' W 125°38'1 0.8 27.6
2017-Jan-11 12:00S 09°48' W 125°38'1 0.6 27.6
2017-Jan-11 11:00S 09°49' W 125°38'0 0.0 27.7
2017-Jan-11 10:00S 09°49' W 125°38'3 1.0 27.7
2017-Jan-11 07:00S 09°49' W 125°35'2 1.8 27.7
2017-Jan-11 06:00S 09°49' W 125°37'0 0.0 27.8
2017-Jan-11 05:00S 09°49' W 125°37'1 0.1 27.8
2017-Jan-11 01:00S 09°49' W 125°37'2 0.9 28.1
2017-Jan-10 23:00S 09°47' W 125°36'1 0.2 28.1
2017-Jan-10 18:00S 09°47' W 125°35'1 0.6 27.6
2017-Jan-10 17:00S 09°46' W 125°35'1 1.3 27.5
2017-Jan-10 16:00S 09°47' W 125°34'0 0.0 27.5
2017-Jan-10 15:00S 09°47' W 125°34'1 1.3 27.5
2017-Jan-10 14:00S 09°46' W 125°33'0 0.0 27.6
2017-Jan-10 12:00S 09°46' W 125°33'1 0.6 27.6
2017-Jan-10 11:00S 09°46' W 125°34'0 0.0 27.6
2017-Jan-10 10:00S 09°46' W 125°34'1 0.4 27.6
2017-Jan-10 07:00S 09°46' W 125°32'0 0.0 27.7
2017-Jan-10 06:00S 09°46' W 125°32'0 0.0 27.7
2017-Jan-10 05:00S 09°46' W 125°32'1 1.3 27.7
2017-Jan-10 04:00S 09°45' W 125°31'1 0.3 27.8
2017-Jan-10 01:00S 09°44' W 125°32'2 1.2 27.9
2017-Jan-09 23:00S 09°44' W 125°29'0 0.0 27.9
2017-Jan-09 18:00S 09°44' W 125°29'1 0.6 27.5
2017-Jan-09 17:00S 09°44' W 125°30'1 0.7 27.5
2017-Jan-09 15:00S 09°43' W 125°29'2 2.4 27.5
2017-Jan-09 14:00S 09°42' W 125°27'0 0.0 27.5
2017-Jan-09 13:00S 09°42' W 125°27'0 0.0 27.5
2017-Jan-09 12:00S 09°42' W 125°27'1 1.2 27.5
2017-Jan-09 11:00S 09°42' W 125°28'1 0.6 27.5
2017-Jan-09 10:00S 09°42' W 125°28'1 0.3 27.5
2017-Jan-09 07:00S 09°43' W 125°27'1 1.2 27.5
2017-Jan-09 06:00S 09°43' W 125°26'0 0.0 27.6
2017-Jan-09 05:00S 09°43' W 125°26'0 0.0 27.6
2017-Jan-09 04:00S 09°43' W 125°26'2 1.7 27.6
2017-Jan-09 03:00S 09°41' W 125°25'0 0.0 27.6
2017-Jan-09 01:00S 09°41' W 125°25'1 0.3 27.7
2017-Jan-08 23:00S 09°42' W 125°25'0 0.0 27.8
2017-Jan-08 22:00S 09°42' W 125°25'0 0.0 27.7
2017-Jan-08 21:00S 09°42' W 125°25'1 0.3 27.7
2017-Jan-08 18:00S 09°41' W 125°24'2 2.1 27.5
2017-Jan-08 17:00S 09°40' W 125°22'0 0.0 27.5
2017-Jan-08 16:00S 09°40' W 125°22'1 0.6 27.5
2017-Jan-08 15:00S 09°40' W 125°22'0 0.0 27.5
2017-Jan-08 14:00S 09°40' W 125°22'2 0.8 27.5
2017-Jan-08 12:00S 09°38' W 125°23'1 0.6 27.5
2017-Jan-08 11:00S 09°38' W 125°23'0 0.0 27.5
2017-Jan-08 10:00S 09°38' W 125°23'4 1.1 27.5
2017-Jan-08 06:00S 09°35' W 125°20'0 0.0 27.6
2017-Jan-08 05:00S 09°35' W 125°20'0 0.0 27.6
2017-Jan-08 04:00S 09°35' W 125°20'3 0.9 27.6
2017-Jan-08 01:00S 09°34' W 125°17'1 0.2 27.7
2017-Jan-07 22:00S 09°34' W 125°17'2 0.5 27.7
2017-Jan-07 18:00S 09°32' W 125°16'1 1.3 27.5
2017-Jan-07 17:00S 09°32' W 125°14'1 0.3 27.5
2017-Jan-07 15:00S 09°32' W 125°14'1 0.6 27.4
2017-Jan-07 14:00S 09°32' W 125°13'4 3.6 27.4
2017-Jan-07 13:00S 09°32' W 125°10'0 0.0 27.4
2017-Jan-07 11:00S 09°32' W 125°10'0 0.0 27.5
2017-Jan-07 10:00S 09°32' W 125°10'0 0.0 27.5
2017-Jan-07 07:00S 09°32' W 125°10'1 0.6 27.5
2017-Jan-07 06:00S 09°32' W 125°10'0 0.0 27.5
2017-Jan-07 05:00S 09°32' W 125°10'1 1.2 27.5
2017-Jan-07 04:00S 09°32' W 125°09'1 0.6 27.5
2017-Jan-07 03:00S 09°32' W 125°08'1 0.3 27.5
2017-Jan-07 01:00S 09°32' W 125°08'0 0.0 27.6
2017-Jan-07 00:00S 09°32' W 125°08'1 0.8 27.6
2017-Jan-06 23:00S 09°31' W 125°08'   27.6
Track history (hours):
 
Tides and Currents Weather Stations Pressure Air Temp Water Temp Dewpoint Dewpoint Depression Visibility Wind Speed Wind Dir Waves Ship Positions

Aadnyj

Last reported at 2017-Jan-16 23:00 UTC. Time now 2017-Jan-17 00:57 UTC.
Position S 09°57' W 126°19'.

Length 56 m.

Type: Towing. MMSI: 413600286.

Water temperature 28.3 ° C

Date/timePositionNaut miles runAvg speedWind from/ knotsBaromVisibWave heightAir tempDewpointWater temp
2017-Jan-16 23:00S 09°57' W 126°19'2 1.7 28.3
2017-Jan-16 22:00S 09°56' W 126°17'0 0.0 28.2
2017-Jan-16 18:00S 09°56' W 126°17'1 0.8 27.9
2017-Jan-16 17:00S 09°55' W 126°17'0 0.0 27.9
2017-Jan-16 15:00S 09°55' W 126°17'6 5.9 27.9
2017-Jan-16 14:00S 09°55' W 126°11'0 0.0 27.9
2017-Jan-16 13:00S 09°55' W 126°11'0 0.0 27.9
2017-Jan-16 12:00S 09°55' W 126°11'0 0.0 27.9
2017-Jan-16 10:00S 09°55' W 126°11'0 0.0 27.9
2017-Jan-16 07:00S 09°55' W 126°11'0 0.0 27.9
2017-Jan-16 06:00S 09°55' W 126°11'1 0.6 27.9
2017-Jan-16 05:00S 09°55' W 126°10'3 1.0 27.9
2017-Jan-16 02:00S 09°55' W 126°07'0 0.0 28.1
2017-Jan-16 01:00S 09°55' W 126°07'0 0.0 28.2
2017-Jan-16 00:00S 09°55' W 126°07'1 0.6 28.2
2017-Jan-15 23:00S 09°55' W 126°07'1 0.6 28.2
2017-Jan-15 22:00S 09°55' W 126°07'0 0.0 28.1
2017-Jan-15 21:00S 09°55' W 126°07'2 0.8 28.2
2017-Jan-15 18:00S 09°55' W 126°05'1 0.2 27.9
2017-Jan-15 15:00S 09°55' W 126°04'0 0.0 27.8
2017-Jan-15 14:00S 09°55' W 126°04'1 0.6 27.8
2017-Jan-15 13:00S 09°55' W 126°04'0 0.0 27.8
2017-Jan-15 12:00S 09°55' W 126°04'1 0.6 27.8
2017-Jan-15 11:00S 09°55' W 126°03'1 0.3 27.8
2017-Jan-15 09:00S 09°55' W 126°02'0 0.0 27.8
2017-Jan-15 06:00S 09°55' W 126°02'0 0.0 27.9
2017-Jan-15 05:00S 09°55' W 126°02'1 1.3 27.9
2017-Jan-15 04:00S 09°54' W 126°01'1 0.2 28.0
2017-Jan-15 01:00S 09°55' W 126°01'1 1.3 28.3
2017-Jan-15 00:00S 09°54' W 126°00'1 0.6 28.2
2017-Jan-14 23:00S 09°54' W 126°01'0 0.0 28.3
2017-Jan-14 22:00S 09°54' W 126°01'1 0.4 28.3
2017-Jan-14 19:00S 09°53' W 125°59'0 0.0 27.9
2017-Jan-14 18:00S 09°53' W 125°59'0 0.0 27.8
2017-Jan-14 17:00S 09°53' W 125°59'1 1.3 27.7
2017-Jan-14 16:00S 09°53' W 125°58'0 0.0 27.7
2017-Jan-14 15:00S 09°53' W 125°58'0 0.0 27.7
2017-Jan-14 14:00S 09°53' W 125°58'1 1.3 27.7
2017-Jan-14 13:00S 09°53' W 125°57'0 0.0 27.7
2017-Jan-14 11:00S 09°53' W 125°57'1 0.3 27.7
2017-Jan-14 09:00S 09°53' W 125°58'2 0.9 27.8
2017-Jan-14 07:00S 09°53' W 125°56'1 0.3 27.8
2017-Jan-14 04:00S 09°52' W 125°55'1 0.4 27.9
2017-Jan-14 01:00S 09°52' W 125°54'0 0.0 28.1
2017-Jan-14 00:00S 09°52' W 125°54'0 0.0 28.2
2017-Jan-13 23:00S 09°52' W 125°54'0 0.0 28.1
2017-Jan-13 22:00S 09°52' W 125°54'1 0.2 28.1
2017-Jan-13 18:00S 09°52' W 125°53'0 0.0 27.7
2017-Jan-13 17:00S 09°52' W 125°53'1 0.6 27.7
2017-Jan-13 15:00S 09°52' W 125°52'1 0.6 27.6
2017-Jan-13 14:00S 09°52' W 125°53'1 1.3 27.6
2017-Jan-13 13:00S 09°53' W 125°52'0 0.0 27.6
2017-Jan-13 11:00S 09°53' W 125°52'1 0.8 27.7
2017-Jan-13 10:00S 09°52' W 125°51'0 0.0 27.7
2017-Jan-13 09:00S 09°52' W 125°51'3 0.9 27.7
2017-Jan-13 06:00S 09°53' W 125°49'0 0.0 27.7
2017-Jan-13 05:00S 09°53' W 125°49'1 0.1 27.8
2017-Jan-13 00:00S 09°53' W 125°49'1 0.8 28.1
2017-Jan-12 23:00S 09°52' W 125°49'2 0.3 28.1
2017-Jan-12 17:00S 09°51' W 125°48'2 0.9 27.6
2017-Jan-12 15:00S 09°50' W 125°46'0 0.0 27.6
2017-Jan-12 14:00S 09°50' W 125°46'0 0.0 27.6
2017-Jan-12 13:00S 09°50' W 125°46'0 0.0 27.6
2017-Jan-12 12:00S 09°50' W 125°46'1 0.8 27.6
2017-Jan-12 11:00S 09°50' W 125°47'0 0.0 27.6
2017-Jan-12 10:00S 09°50' W 125°47'2 0.8 27.7
2017-Jan-12 07:00S 09°49' W 125°44'0 0.0 27.7
2017-Jan-12 06:00S 09°49' W 125°44'1 0.6 27.7
2017-Jan-12 05:00S 09°49' W 125°44'2 0.5 27.7
2017-Jan-12 01:00S 09°49' W 125°42'1 0.6 28.0
2017-Jan-12 00:00S 09°49' W 125°43'2 1.8 28.0
2017-Jan-11 23:00S 09°49' W 125°41'0 0.0 28.0
2017-Jan-11 22:00S 09°49' W 125°41'1 0.3 27.9
2017-Jan-11 18:00S 09°48' W 125°42'3 3.0 27.6
2017-Jan-11 17:00S 09°48' W 125°39'0 0.0 27.6
2017-Jan-11 16:00S 09°48' W 125°39'0 0.0 27.6
2017-Jan-11 15:00S 09°48' W 125°39'1 1.3 27.6
2017-Jan-11 14:00S 09°49' W 125°38'0 0.0 27.6
2017-Jan-11 13:00S 09°49' W 125°38'1 0.8 27.6
2017-Jan-11 12:00S 09°48' W 125°38'1 0.6 27.6
2017-Jan-11 11:00S 09°49' W 125°38'0 0.0 27.7
2017-Jan-11 10:00S 09°49' W 125°38'3 1.0 27.7
2017-Jan-11 07:00S 09°49' W 125°35'2 1.8 27.7
2017-Jan-11 06:00S 09°49' W 125°37'0 0.0 27.8
2017-Jan-11 05:00S 09°49' W 125°37'1 0.1 27.8
2017-Jan-11 01:00S 09°49' W 125°37'2 0.9 28.1
2017-Jan-10 23:00S 09°47' W 125°36'1 0.2 28.1
2017-Jan-10 18:00S 09°47' W 125°35'1 0.6 27.6
2017-Jan-10 17:00S 09°46' W 125°35'1 1.3 27.5
2017-Jan-10 16:00S 09°47' W 125°34'0 0.0 27.5
2017-Jan-10 15:00S 09°47' W 125°34'1 1.3 27.5
2017-Jan-10 14:00S 09°46' W 125°33'0 0.0 27.6
2017-Jan-10 12:00S 09°46' W 125°33'1 0.6 27.6
2017-Jan-10 11:00S 09°46' W 125°34'0 0.0 27.6
2017-Jan-10 10:00S 09°46' W 125°34'1 0.4 27.6
2017-Jan-10 07:00S 09°46' W 125°32'0 0.0 27.7
2017-Jan-10 06:00S 09°46' W 125°32'0 0.0 27.7
2017-Jan-10 05:00S 09°46' W 125°32'1 1.3 27.7
2017-Jan-10 04:00S 09°45' W 125°31'1 0.3 27.8
2017-Jan-10 01:00S 09°44' W 125°32'2 1.2 27.9
2017-Jan-09 23:00S 09°44' W 125°29'0 0.0 27.9
2017-Jan-09 18:00S 09°44' W 125°29'1 0.6 27.5
2017-Jan-09 17:00S 09°44' W 125°30'1 0.7 27.5
2017-Jan-09 15:00S 09°43' W 125°29'2 2.4 27.5
2017-Jan-09 14:00S 09°42' W 125°27'0 0.0 27.5
2017-Jan-09 13:00S 09°42' W 125°27'0 0.0 27.5
2017-Jan-09 12:00S 09°42' W 125°27'1 1.2 27.5
2017-Jan-09 11:00S 09°42' W 125°28'1 0.6 27.5
2017-Jan-09 10:00S 09°42' W 125°28'1 0.3 27.5
2017-Jan-09 07:00S 09°43' W 125°27'1 1.2 27.5
2017-Jan-09 06:00S 09°43' W 125°26'0 0.0 27.6
2017-Jan-09 05:00S 09°43' W 125°26'0 0.0 27.6
2017-Jan-09 04:00S 09°43' W 125°26'2 1.7 27.6
2017-Jan-09 03:00S 09°41' W 125°25'0 0.0 27.6
2017-Jan-09 01:00S 09°41' W 125°25'1 0.3 27.7
2017-Jan-08 23:00S 09°42' W 125°25'0 0.0 27.8
2017-Jan-08 22:00S 09°42' W 125°25'0 0.0 27.7
2017-Jan-08 21:00S 09°42' W 125°25'1 0.3 27.7
2017-Jan-08 18:00S 09°41' W 125°24'2 2.1 27.5
2017-Jan-08 17:00S 09°40' W 125°22'0 0.0 27.5
2017-Jan-08 16:00S 09°40' W 125°22'1 0.6 27.5
2017-Jan-08 15:00S 09°40' W 125°22'0 0.0 27.5
2017-Jan-08 14:00S 09°40' W 125°22'2 0.8 27.5
2017-Jan-08 12:00S 09°38' W 125°23'1 0.6 27.5
2017-Jan-08 11:00S 09°38' W 125°23'0 0.0 27.5
2017-Jan-08 10:00S 09°38' W 125°23'4 1.1 27.5
2017-Jan-08 06:00S 09°35' W 125°20'0 0.0 27.6
2017-Jan-08 05:00S 09°35' W 125°20'0 0.0 27.6
2017-Jan-08 04:00S 09°35' W 125°20'3 0.9 27.6
2017-Jan-08 01:00S 09°34' W 125°17'1 0.2 27.7
2017-Jan-07 22:00S 09°34' W 125°17'2 0.5 27.7
2017-Jan-07 18:00S 09°32' W 125°16'1 1.3 27.5
2017-Jan-07 17:00S 09°32' W 125°14'1 0.3 27.5
2017-Jan-07 15:00S 09°32' W 125°14'1 0.6 27.4
2017-Jan-07 14:00S 09°32' W 125°13'4 3.6 27.4
2017-Jan-07 13:00S 09°32' W 125°10'0 0.0 27.4
2017-Jan-07 11:00S 09°32' W 125°10'0 0.0 27.5
2017-Jan-07 10:00S 09°32' W 125°10'0 0.0 27.5
2017-Jan-07 07:00S 09°32' W 125°10'1 0.6 27.5
2017-Jan-07 06:00S 09°32' W 125°10'0 0.0 27.5
2017-Jan-07 05:00S 09°32' W 125°10'1 1.2 27.5
2017-Jan-07 04:00S 09°32' W 125°09'1 0.6 27.5
2017-Jan-07 03:00S 09°32' W 125°08'1 0.3 27.5
2017-Jan-07 01:00S 09°32' W 125°08'0 0.0 27.6
2017-Jan-07 00:00S 09°32' W 125°08'1 0.8 27.6
2017-Jan-06 23:00S 09°31' W 125°08'   27.6

Dump ship's entire track history